sensor_id;sensor_type;location;lat;lon;timestamp;pressure;altitude;pressure_sealevel;temperature;humidity
3796;BME280;1913;50.660;7.834;2022-07-17T00:02:09;61283.88;;;-145.51;100.00
3796;BME280;1913;50.660;7.834;2022-07-17T00:05:34;61283.88;;;-145.51;100.00
3796;BME280;1913;50.660;7.834;2022-07-17T00:08:58;61283.88;;;-145.51;100.00
3796;BME280;1913;50.660;7.834;2022-07-17T00:12:22;61283.88;;;-145.51;100.00
3796;BME280;1913;50.660;7.834;2022-07-17T00:15:46;61283.88;;;-145.51;100.00
3796;BME280;1913;50.660;7.834;2022-07-17T00:19:10;61283.88;;;-145.51;100.00
3796;BME280;1913;50.660;7.834;2022-07-17T00:22:33;61283.88;;;-145.51;100.00
3796;BME280;1913;50.660;7.834;2022-07-17T00:25:57;61283.88;;;-145.51;100.00
3796;BME280;1913;50.660;7.834;2022-07-17T00:29:21;61283.88;;;-145.51;100.00
3796;BME280;1913;50.660;7.834;2022-07-17T00:32:30;61283.88;;;-145.51;100.00
3796;BME280;1913;50.660;7.834;2022-07-17T00:35:52;61283.88;;;-145.51;100.00
3796;BME280;1913;50.660;7.834;2022-07-17T00:39:15;61283.88;;;-145.51;100.00
3796;BME280;1913;50.660;7.834;2022-07-17T00:42:41;61283.88;;;-145.51;100.00
3796;BME280;1913;50.660;7.834;2022-07-17T00:46:09;61283.88;;;-145.51;100.00
3796;BME280;1913;50.660;7.834;2022-07-17T00:49:30;61283.88;;;-145.51;100.00
3796;BME280;1913;50.660;7.834;2022-07-17T00:52:54;61283.88;;;-145.51;100.00
3796;BME280;1913;50.660;7.834;2022-07-17T00:56:20;61283.88;;;-145.51;100.00
3796;BME280;1913;50.660;7.834;2022-07-17T00:59:30;61283.88;;;-145.51;100.00
3796;BME280;1913;50.660;7.834;2022-07-17T01:02:10;61283.88;;;-145.51;100.00
3796;BME280;1913;50.660;7.834;2022-07-17T01:05:02;61283.88;;;-145.51;100.00
3796;BME280;1913;50.660;7.834;2022-07-17T01:08:15;61283.88;;;-145.51;100.00
3796;BME280;1913;50.660;7.834;2022-07-17T01:11:35;61283.88;;;-145.51;100.00
3796;BME280;1913;50.660;7.834;2022-07-17T01:14:55;61283.88;;;-145.51;100.00
3796;BME280;1913;50.660;7.834;2022-07-17T01:18:20;61283.88;;;-145.51;100.00
3796;BME280;1913;50.660;7.834;2022-07-17T01:21:43;61283.88;;;-145.51;100.00
3796;BME280;1913;50.660;7.834;2022-07-17T01:25:06;61283.88;;;-145.51;100.00
3796;BME280;1913;50.660;7.834;2022-07-17T01:28:25;61283.88;;;-145.51;100.00
3796;BME280;1913;50.660;7.834;2022-07-17T01:31:47;61283.88;;;-145.51;100.00
3796;BME280;1913;50.660;7.834;2022-07-17T01:35:07;61283.88;;;-145.51;100.00
3796;BME280;1913;50.660;7.834;2022-07-17T01:38:21;61283.88;;;-145.51;100.00
3796;BME280;1913;50.660;7.834;2022-07-17T01:41:42;61283.88;;;-145.51;100.00
3796;BME280;1913;50.660;7.834;2022-07-17T01:45:05;61283.88;;;-145.51;100.00
3796;BME280;1913;50.660;7.834;2022-07-17T01:48:29;61283.88;;;-145.51;100.00
3796;BME280;1913;50.660;7.834;2022-07-17T01:51:53;61283.88;;;-145.51;100.00
3796;BME280;1913;50.660;7.834;2022-07-17T01:55:17;61283.88;;;-145.51;100.00
3796;BME280;1913;50.660;7.834;2022-07-17T01:58:41;61283.88;;;-145.51;100.00
3796;BME280;1913;50.660;7.834;2022-07-17T02:02:06;61283.88;;;-145.51;100.00
3796;BME280;1913;50.660;7.834;2022-07-17T02:05:30;61283.88;;;-145.51;100.00
3796;BME280;1913;50.660;7.834;2022-07-17T02:08:54;61283.88;;;-145.51;100.00
3796;BME280;1913;50.660;7.834;2022-07-17T02:12:18;61283.88;;;-145.51;100.00
3796;BME280;1913;50.660;7.834;2022-07-17T02:15:42;61283.88;;;-145.51;100.00
3796;BME280;1913;50.660;7.834;2022-07-17T02:19:05;61283.88;;;-145.51;100.00
3796;BME280;1913;50.660;7.834;2022-07-17T02:22:29;61283.88;;;-145.51;100.00
3796;BME280;1913;50.660;7.834;2022-07-17T02:25:53;61283.88;;;-145.51;100.00
3796;BME280;1913;50.660;7.834;2022-07-17T02:29:18;61283.88;;;-145.51;100.00
3796;BME280;1913;50.660;7.834;2022-07-17T02:32:42;61283.88;;;-145.51;100.00
3796;BME280;1913;50.660;7.834;2022-07-17T02:36:06;61283.88;;;-145.51;100.00
3796;BME280;1913;50.660;7.834;2022-07-17T02:39:30;61283.88;;;-145.51;100.00
3796;BME280;1913;50.660;7.834;2022-07-17T02:42:54;61283.88;;;-145.51;100.00
3796;BME280;1913;50.660;7.834;2022-07-17T02:46:18;61283.88;;;-145.51;100.00
3796;BME280;1913;50.660;7.834;2022-07-17T02:49:42;61283.88;;;-145.51;100.00
3796;BME280;1913;50.660;7.834;2022-07-17T02:53:06;61283.88;;;-145.51;100.00
3796;BME280;1913;50.660;7.834;2022-07-17T02:56:30;61283.88;;;-145.51;100.00
3796;BME280;1913;50.660;7.834;2022-07-17T02:59:54;61283.88;;;-145.51;100.00
3796;BME280;1913;50.660;7.834;2022-07-17T03:03:18;61283.88;;;-145.51;100.00
3796;BME280;1913;50.660;7.834;2022-07-17T03:06:45;61283.88;;;-145.51;100.00
3796;BME280;1913;50.660;7.834;2022-07-17T03:10:09;61283.88;;;-145.51;100.00
3796;BME280;1913;50.660;7.834;2022-07-17T03:13:32;61283.88;;;-145.51;100.00
3796;BME280;1913;50.660;7.834;2022-07-17T03:16:56;61283.88;;;-145.51;100.00
3796;BME280;1913;50.660;7.834;2022-07-17T03:20:20;61283.88;;;-145.51;100.00
3796;BME280;1913;50.660;7.834;2022-07-17T03:23:44;61283.88;;;-145.51;100.00
3796;BME280;1913;50.660;7.834;2022-07-17T03:27:08;61283.88;;;-145.51;100.00
3796;BME280;1913;50.660;7.834;2022-07-17T03:30:32;61283.88;;;-145.51;100.00
3796;BME280;1913;50.660;7.834;2022-07-17T03:33:56;61283.88;;;-145.51;100.00
3796;BME280;1913;50.660;7.834;2022-07-17T03:37:19;61283.88;;;-145.51;100.00
3796;BME280;1913;50.660;7.834;2022-07-17T03:40:43;61283.88;;;-145.51;100.00
3796;BME280;1913;50.660;7.834;2022-07-17T03:44:07;61283.88;;;-145.51;100.00
3796;BME280;1913;50.660;7.834;2022-07-17T03:47:31;61283.88;;;-145.51;100.00
3796;BME280;1913;50.660;7.834;2022-07-17T03:50:55;61283.88;;;-145.51;100.00
3796;BME280;1913;50.660;7.834;2022-07-17T03:54:19;61283.88;;;-145.51;100.00
3796;BME280;1913;50.660;7.834;2022-07-17T03:57:43;61283.88;;;-145.51;100.00
3796;BME280;1913;50.660;7.834;2022-07-17T04:01:07;61283.88;;;-145.51;100.00
3796;BME280;1913;50.660;7.834;2022-07-17T04:04:31;61283.88;;;-145.51;100.00
3796;BME280;1913;50.660;7.834;2022-07-17T04:07:55;61283.88;;;-145.51;100.00
3796;BME280;1913;50.660;7.834;2022-07-17T04:11:19;61283.88;;;-145.51;100.00
3796;BME280;1913;50.660;7.834;2022-07-17T04:14:43;61283.88;;;-145.51;100.00
3796;BME280;1913;50.660;7.834;2022-07-17T04:18:08;61283.88;;;-145.51;100.00
3796;BME280;1913;50.660;7.834;2022-07-17T04:21:31;61283.88;;;-145.51;100.00
3796;BME280;1913;50.660;7.834;2022-07-17T04:24:55;61283.88;;;-145.51;100.00
3796;BME280;1913;50.660;7.834;2022-07-17T04:28:19;61283.88;;;-145.51;100.00
3796;BME280;1913;50.660;7.834;2022-07-17T04:31:43;61283.88;;;-145.51;100.00
3796;BME280;1913;50.660;7.834;2022-07-17T04:35:07;61283.88;;;-145.51;100.00
3796;BME280;1913;50.660;7.834;2022-07-17T04:38:31;61283.88;;;-145.51;100.00
3796;BME280;1913;50.660;7.834;2022-07-17T04:41:55;61283.88;;;-145.51;100.00
3796;BME280;1913;50.660;7.834;2022-07-17T04:45:19;61283.88;;;-145.51;100.00
3796;BME280;1913;50.660;7.834;2022-07-17T04:48:43;61283.88;;;-145.51;100.00
3796;BME280;1913;50.660;7.834;2022-07-17T04:52:07;61283.88;;;-145.51;100.00
3796;BME280;1913;50.660;7.834;2022-07-17T04:55:30;61283.88;;;-145.51;100.00
3796;BME280;1913;50.660;7.834;2022-07-17T04:58:54;61283.88;;;-145.51;100.00
3796;BME280;1913;50.660;7.834;2022-07-17T05:02:18;61283.88;;;-145.51;100.00
3796;BME280;1913;50.660;7.834;2022-07-17T05:05:42;61283.88;;;-145.51;100.00
3796;BME280;1913;50.660;7.834;2022-07-17T05:09:06;61283.88;;;-145.51;100.00
3796;BME280;1913;50.660;7.834;2022-07-17T05:12:30;61283.88;;;-145.51;100.00
3796;BME280;1913;50.660;7.834;2022-07-17T05:15:54;61283.88;;;-145.51;100.00
3796;BME280;1913;50.660;7.834;2022-07-17T05:19:18;61283.88;;;-145.51;100.00
3796;BME280;1913;50.660;7.834;2022-07-17T05:22:42;61283.88;;;-145.51;100.00
3796;BME280;1913;50.660;7.834;2022-07-17T05:26:06;61283.88;;;-145.51;100.00
3796;BME280;1913;50.660;7.834;2022-07-17T05:29:30;61283.88;;;-145.51;100.00
3796;BME280;1913;50.660;7.834;2022-07-17T05:32:53;61283.88;;;-145.51;100.00
3796;BME280;1913;50.660;7.834;2022-07-17T05:36:09;61283.88;;;-145.51;100.00
3796;BME280;1913;50.660;7.834;2022-07-17T05:39:33;61283.88;;;-145.51;100.00
3796;BME280;1913;50.660;7.834;2022-07-17T05:42:57;61283.88;;;-145.51;100.00
3796;BME280;1913;50.660;7.834;2022-07-17T05:46:22;61283.88;;;-145.51;100.00
3796;BME280;1913;50.660;7.834;2022-07-17T05:49:45;61283.88;;;-145.51;100.00
3796;BME280;1913;50.660;7.834;2022-07-17T05:53:09;61283.88;;;-145.51;100.00
3796;BME280;1913;50.660;7.834;2022-07-17T05:56:33;61283.88;;;-145.51;100.00
3796;BME280;1913;50.660;7.834;2022-07-17T05:59:57;61283.88;;;-145.51;100.00
3796;BME280;1913;50.660;7.834;2022-07-17T06:03:20;61283.88;;;-145.51;100.00
3796;BME280;1913;50.660;7.834;2022-07-17T06:06:44;61283.88;;;-145.51;100.00
3796;BME280;1913;50.660;7.834;2022-07-17T06:10:08;61283.88;;;-145.51;100.00
3796;BME280;1913;50.660;7.834;2022-07-17T06:12:51;61283.88;;;-145.51;100.00
3796;BME280;1913;50.660;7.834;2022-07-17T06:15:21;61283.88;;;-145.51;100.00
3796;BME280;1913;50.660;7.834;2022-07-17T06:18:40;61283.88;;;-145.51;100.00
3796;BME280;1913;50.660;7.834;2022-07-17T06:22:00;61283.88;;;-145.51;100.00
3796;BME280;1913;50.660;7.834;2022-07-17T06:25:10;61283.88;;;-145.51;100.00
3796;BME280;1913;50.660;7.834;2022-07-17T06:28:18;61283.88;;;-145.51;100.00
3796;BME280;1913;50.660;7.834;2022-07-17T06:31:27;61283.88;;;-145.51;100.00
3796;BME280;1913;50.660;7.834;2022-07-17T06:34:51;61283.88;;;-145.51;100.00
3796;BME280;1913;50.660;7.834;2022-07-17T06:38:13;61283.88;;;-145.51;100.00
3796;BME280;1913;50.660;7.834;2022-07-17T06:41:26;61283.88;;;-145.51;100.00
3796;BME280;1913;50.660;7.834;2022-07-17T06:44:05;61283.88;;;-145.51;100.00
3796;BME280;1913;50.660;7.834;2022-07-17T06:46:36;61283.88;;;-145.51;100.00
3796;BME280;1913;50.660;7.834;2022-07-17T06:49:09;61283.88;;;-145.51;100.00
3796;BME280;1913;50.660;7.834;2022-07-17T06:52:08;61283.88;;;-145.51;100.00
3796;BME280;1913;50.660;7.834;2022-07-17T06:55:32;61283.88;;;-145.51;100.00
3796;BME280;1913;50.660;7.834;2022-07-17T06:57:58;61283.88;;;-145.51;100.00
3796;BME280;1913;50.660;7.834;2022-07-17T07:00:24;61283.88;;;-145.51;100.00
3796;BME280;1913;50.660;7.834;2022-07-17T07:02:49;61283.88;;;-145.51;100.00
3796;BME280;1913;50.660;7.834;2022-07-17T07:05:14;61283.88;;;-145.51;100.00
3796;BME280;1913;50.660;7.834;2022-07-17T07:07:40;61283.88;;;-145.51;100.00
3796;BME280;1913;50.660;7.834;2022-07-17T07:10:06;61283.88;;;-145.51;100.00
3796;BME280;1913;50.660;7.834;2022-07-17T07:12:31;61283.88;;;-145.51;100.00
3796;BME280;1913;50.660;7.834;2022-07-17T07:14:57;61283.88;;;-145.51;100.00
3796;BME280;1913;50.660;7.834;2022-07-17T07:17:22;61283.88;;;-145.51;100.00
3796;BME280;1913;50.660;7.834;2022-07-17T07:19:48;61283.88;;;-145.51;100.00
3796;BME280;1913;50.660;7.834;2022-07-17T07:22:13;61283.88;;;-145.51;100.00
3796;BME280;1913;50.660;7.834;2022-07-17T07:24:38;61283.88;;;-145.51;100.00
3796;BME280;1913;50.660;7.834;2022-07-17T07:27:04;61283.88;;;-145.51;100.00
3796;BME280;1913;50.660;7.834;2022-07-17T07:29:29;61283.88;;;-145.51;100.00
3796;BME280;1913;50.660;7.834;2022-07-17T07:31:54;61283.88;;;-145.51;100.00
3796;BME280;1913;50.660;7.834;2022-07-17T07:34:20;61283.88;;;-145.51;100.00
3796;BME280;1913;50.660;7.834;2022-07-17T07:36:45;61283.88;;;-145.51;100.00
3796;BME280;1913;50.660;7.834;2022-07-17T07:39:10;61283.88;;;-145.51;100.00
3796;BME280;1913;50.660;7.834;2022-07-17T07:41:36;61283.88;;;-145.51;100.00
3796;BME280;1913;50.660;7.834;2022-07-17T07:44:01;61283.88;;;-145.51;100.00
3796;BME280;1913;50.660;7.834;2022-07-17T07:46:26;61283.88;;;-145.51;100.00
3796;BME280;1913;50.660;7.834;2022-07-17T07:48:52;61283.88;;;-145.51;100.00
3796;BME280;1913;50.660;7.834;2022-07-17T07:51:17;61283.88;;;-145.51;100.00
3796;BME280;1913;50.660;7.834;2022-07-17T07:53:42;61283.88;;;-145.51;100.00
3796;BME280;1913;50.660;7.834;2022-07-17T07:56:08;61283.88;;;-145.51;100.00
3796;BME280;1913;50.660;7.834;2022-07-17T07:58:33;61283.88;;;-145.51;100.00
3796;BME280;1913;50.660;7.834;2022-07-17T08:00:58;61283.88;;;-145.51;100.00
3796;BME280;1913;50.660;7.834;2022-07-17T08:03:24;61283.88;;;-145.51;100.00
3796;BME280;1913;50.660;7.834;2022-07-17T08:05:49;61283.88;;;-145.51;100.00
3796;BME280;1913;50.660;7.834;2022-07-17T08:08:15;61283.88;;;-145.51;100.00
3796;BME280;1913;50.660;7.834;2022-07-17T08:10:40;61283.88;;;-145.51;100.00
3796;BME280;1913;50.660;7.834;2022-07-17T08:13:06;61283.88;;;-145.51;100.00
3796;BME280;1913;50.660;7.834;2022-07-17T08:15:31;61283.88;;;-145.51;100.00
3796;BME280;1913;50.660;7.834;2022-07-17T08:17:57;61283.88;;;-145.51;100.00
3796;BME280;1913;50.660;7.834;2022-07-17T08:20:22;61283.88;;;-145.51;100.00
3796;BME280;1913;50.660;7.834;2022-07-17T08:22:49;61283.88;;;-145.51;100.00
3796;BME280;1913;50.660;7.834;2022-07-17T08:25:14;61283.88;;;-145.51;100.00
3796;BME280;1913;50.660;7.834;2022-07-17T08:27:41;61283.88;;;-145.51;100.00
3796;BME280;1913;50.660;7.834;2022-07-17T08:30:09;61283.88;;;-145.51;100.00
3796;BME280;1913;50.660;7.834;2022-07-17T08:32:35;61283.88;;;-145.51;100.00
3796;BME280;1913;50.660;7.834;2022-07-17T08:35:00;61283.88;;;-145.51;100.00
3796;BME280;1913;50.660;7.834;2022-07-17T08:37:26;61283.88;;;-145.51;100.00
3796;BME280;1913;50.660;7.834;2022-07-17T08:39:52;61283.88;;;-145.51;100.00
3796;BME280;1913;50.660;7.834;2022-07-17T08:42:17;61283.88;;;-145.51;100.00
3796;BME280;1913;50.660;7.834;2022-07-17T08:44:43;61283.88;;;-145.51;100.00
3796;BME280;1913;50.660;7.834;2022-07-17T08:47:11;61283.88;;;-145.51;100.00
3796;BME280;1913;50.660;7.834;2022-07-17T08:49:40;61283.88;;;-145.51;100.00
3796;BME280;1913;50.660;7.834;2022-07-17T08:52:06;61283.88;;;-145.51;100.00
3796;BME280;1913;50.660;7.834;2022-07-17T08:54:31;61283.88;;;-145.51;100.00
3796;BME280;1913;50.660;7.834;2022-07-17T08:56:57;61283.88;;;-145.51;100.00
3796;BME280;1913;50.660;7.834;2022-07-17T08:59:22;61283.88;;;-145.51;100.00
3796;BME280;1913;50.660;7.834;2022-07-17T09:01:48;61283.88;;;-145.51;100.00
3796;BME280;1913;50.660;7.834;2022-07-17T09:04:13;61283.88;;;-145.51;100.00
3796;BME280;1913;50.660;7.834;2022-07-17T09:06:38;61283.88;;;-145.51;100.00
3796;BME280;1913;50.660;7.834;2022-07-17T09:09:09;61283.88;;;-145.51;100.00
3796;BME280;1913;50.660;7.834;2022-07-17T09:11:43;61283.88;;;-145.51;100.00
3796;BME280;1913;50.660;7.834;2022-07-17T09:14:09;61283.88;;;-145.51;100.00
3796;BME280;1913;50.660;7.834;2022-07-17T09:16:35;61283.88;;;-145.51;100.00
3796;BME280;1913;50.660;7.834;2022-07-17T09:19:01;61283.88;;;-145.51;100.00
3796;BME280;1913;50.660;7.834;2022-07-17T09:21:28;61283.88;;;-145.51;100.00
3796;BME280;1913;50.660;7.834;2022-07-17T09:24:04;61283.88;;;-145.51;100.00
3796;BME280;1913;50.660;7.834;2022-07-17T09:26:32;61283.88;;;-145.51;100.00
3796;BME280;1913;50.660;7.834;2022-07-17T09:28:59;61283.88;;;-145.51;100.00
3796;BME280;1913;50.660;7.834;2022-07-17T09:31:30;61283.88;;;-145.51;100.00
3796;BME280;1913;50.660;7.834;2022-07-17T09:33:56;61283.88;;;-145.51;100.00
3796;BME280;1913;50.660;7.834;2022-07-17T09:36:22;61283.88;;;-145.51;100.00
3796;BME280;1913;50.660;7.834;2022-07-17T09:38:49;61283.88;;;-145.51;100.00
3796;BME280;1913;50.660;7.834;2022-07-17T09:41:18;61283.88;;;-145.51;100.00
3796;BME280;1913;50.660;7.834;2022-07-17T09:43:56;61283.88;;;-145.51;100.00
3796;BME280;1913;50.660;7.834;2022-07-17T09:46:33;61283.88;;;-145.51;100.00
3796;BME280;1913;50.660;7.834;2022-07-17T09:49:01;61283.88;;;-145.51;100.00
3796;BME280;1913;50.660;7.834;2022-07-17T09:53:56;61283.88;;;-145.51;100.00
3796;BME280;1913;50.660;7.834;2022-07-17T09:56:23;61283.88;;;-145.51;100.00
3796;BME280;1913;50.660;7.834;2022-07-17T09:58:54;61283.88;;;-145.51;100.00
3796;BME280;1913;50.660;7.834;2022-07-17T10:01:20;61283.88;;;-145.51;100.00
3796;BME280;1913;50.660;7.834;2022-07-17T10:03:46;61283.88;;;-145.51;100.00
3796;BME280;1913;50.660;7.834;2022-07-17T10:06:14;61283.88;;;-145.51;100.00
3796;BME280;1913;50.660;7.834;2022-07-17T10:08:40;61283.88;;;-145.51;100.00
3796;BME280;1913;50.660;7.834;2022-07-17T10:11:07;61283.88;;;-145.51;100.00
3796;BME280;1913;50.660;7.834;2022-07-17T10:13:33;61283.88;;;-145.51;100.00
3796;BME280;1913;50.660;7.834;2022-07-17T10:16:00;61283.88;;;-145.51;100.00
3796;BME280;1913;50.660;7.834;2022-07-17T10:18:40;61283.88;;;-145.51;100.00
3796;BME280;1913;50.660;7.834;2022-07-17T10:23:35;61283.88;;;-145.51;100.00
3796;BME280;1913;50.660;7.834;2022-07-17T10:26:01;61283.88;;;-145.51;100.00
3796;BME280;1913;50.660;7.834;2022-07-17T10:28:40;61283.88;;;-145.51;100.00
3796;BME280;1913;50.660;7.834;2022-07-17T10:31:05;61283.88;;;-145.51;100.00
3796;BME280;1913;50.660;7.834;2022-07-17T10:33:30;61283.88;;;-145.51;100.00
3796;BME280;1913;50.660;7.834;2022-07-17T10:35:56;61283.88;;;-145.51;100.00
3796;BME280;1913;50.660;7.834;2022-07-17T10:38:26;61283.88;;;-145.51;100.00
3796;BME280;1913;50.660;7.834;2022-07-17T10:41:03;61283.88;;;-145.51;100.00
3796;BME280;1913;50.660;7.834;2022-07-17T10:43:42;61283.88;;;-145.51;100.00
3796;BME280;1913;50.660;7.834;2022-07-17T10:46:08;61283.88;;;-145.51;100.00
3796;BME280;1913;50.660;7.834;2022-07-17T10:48:33;61283.88;;;-145.51;100.00
3796;BME280;1913;50.660;7.834;2022-07-17T10:50:59;61283.88;;;-145.51;100.00
3796;BME280;1913;50.660;7.834;2022-07-17T10:53:28;61283.88;;;-145.51;100.00
3796;BME280;1913;50.660;7.834;2022-07-17T10:58:28;61283.88;;;-145.51;100.00
3796;BME280;1913;50.660;7.834;2022-07-17T11:03:51;61283.88;;;-145.51;100.00
3796;BME280;1913;50.660;7.834;2022-07-17T11:06:19;61283.88;;;-145.51;100.00
3796;BME280;1913;50.660;7.834;2022-07-17T11:11:18;98282.03;;;32.56;20.88
3796;BME280;1913;50.660;7.834;2022-07-17T11:13:45;98275.94;;;32.85;20.15
3796;BME280;1913;50.660;7.834;2022-07-17T11:16:10;98283.44;;;32.28;20.48
3796;BME280;1913;50.660;7.834;2022-07-17T11:18:36;98269.88;;;32.62;20.38
3796;BME280;1913;50.660;7.834;2022-07-17T11:21:03;98271.06;;;33.34;19.43
3796;BME280;1913;50.660;7.834;2022-07-17T11:23:31;98277.91;;;33.41;18.98
3796;BME280;1913;50.660;7.834;2022-07-17T11:28:31;98267.34;;;33.39;18.83
3796;BME280;1913;50.660;7.834;2022-07-17T11:30:57;98266.06;;;33.36;19.27
3796;BME280;1913;50.660;7.834;2022-07-17T11:33:22;98278.56;;;33.55;18.30
3796;BME280;1913;50.660;7.834;2022-07-17T11:35:47;98273.16;;;33.76;17.61
3796;BME280;1913;50.660;7.834;2022-07-17T11:38:13;98272.09;;;33.98;16.62
3796;BME280;1913;50.660;7.834;2022-07-17T11:40:46;98274.22;;;33.54;16.62
3796;BME280;1913;50.660;7.834;2022-07-17T11:43:12;98270.81;;;33.66;16.50
3796;BME280;1913;50.660;7.834;2022-07-17T11:45:37;98272.00;;;33.47;17.09
3796;BME280;1913;50.660;7.834;2022-07-17T11:48:05;98269.28;;;33.47;17.12
3796;BME280;1913;50.660;7.834;2022-07-17T11:50:30;98269.28;;;33.47;17.12
3796;BME280;1913;50.660;7.834;2022-07-17T11:53:01;98279.09;;;32.09;17.05
3796;BME280;1913;50.660;7.834;2022-07-17T11:55:35;98279.09;;;32.09;17.05
3796;BME280;1913;50.660;7.834;2022-07-17T11:58:01;98279.09;;;32.09;17.05
3796;BME280;1913;50.660;7.834;2022-07-17T12:00:27;98279.09;;;32.09;17.05
3796;BME280;1913;50.660;7.834;2022-07-17T12:03:04;98270.47;;;31.76;16.41
3796;BME280;1913;50.660;7.834;2022-07-17T12:05:32;98273.31;;;32.19;16.54
3796;BME280;1913;50.660;7.834;2022-07-17T12:07:58;98271.63;;;32.50;15.61
3796;BME280;1913;50.660;7.834;2022-07-17T12:10:25;98274.34;;;33.02;15.48
3796;BME280;1913;50.660;7.834;2022-07-17T12:12:57;98265.50;;;33.69;14.33
3796;BME280;1913;50.660;7.834;2022-07-17T12:15:37;98264.69;;;33.69;14.84
3796;BME280;1913;50.660;7.834;2022-07-17T12:18:04;98264.78;;;34.19;14.27
3796;BME280;1913;50.660;7.834;2022-07-17T12:20:43;98259.88;;;34.04;14.03
3796;BME280;1913;50.660;7.834;2022-07-17T12:23:09;98257.19;;;32.93;15.78
3796;BME280;1913;50.660;7.834;2022-07-17T12:25:50;98252.88;;;32.92;16.66
3796;BME280;1913;50.660;7.834;2022-07-17T12:28:15;98246.56;;;33.26;18.52
3796;BME280;1913;50.660;7.834;2022-07-17T12:30:40;98252.09;;;33.47;17.87
3796;BME280;1913;50.660;7.834;2022-07-17T12:33:06;98248.81;;;34.30;18.93
3796;BME280;1913;50.660;7.834;2022-07-17T12:35:31;98246.06;;;34.72;17.81
3796;BME280;1913;50.660;7.834;2022-07-17T12:37:56;98259.03;;;34.75;15.49
3796;BME280;1913;50.660;7.834;2022-07-17T12:40:22;98253.53;;;34.63;14.62
3796;BME280;1913;50.660;7.834;2022-07-17T12:42:47;98256.59;;;34.19;14.07
3796;BME280;1913;50.660;7.834;2022-07-17T12:45:12;98246.59;;;33.64;15.01
3796;BME280;1913;50.660;7.834;2022-07-17T12:47:38;98240.69;;;33.62;17.73
3796;BME280;1913;50.660;7.834;2022-07-17T12:50:03;98235.19;;;33.71;16.22
3796;BME280;1913;50.660;7.834;2022-07-17T12:52:29;98245.16;;;33.20;15.25
3796;BME280;1913;50.660;7.834;2022-07-17T12:54:55;98232.88;;;33.81;16.85
3796;BME280;1913;50.660;7.834;2022-07-17T12:57:21;98238.47;;;34.15;17.88
3796;BME280;1913;50.660;7.834;2022-07-17T12:59:46;98238.13;;;33.87;16.47
3796;BME280;1913;50.660;7.834;2022-07-17T13:02:11;98238.63;;;33.59;15.86
3796;BME280;1913;50.660;7.834;2022-07-17T13:04:37;98238.66;;;33.42;17.91
3796;BME280;1913;50.660;7.834;2022-07-17T13:07:03;98233.63;;;33.61;17.20
3796;BME280;1913;50.660;7.834;2022-07-17T13:09:28;98231.56;;;33.88;15.78
3796;BME280;1913;50.660;7.834;2022-07-17T13:11:54;98225.81;;;33.04;16.63
3796;BME280;1913;50.660;7.834;2022-07-17T13:14:20;98228.03;;;33.57;16.94
3796;BME280;1913;50.660;7.834;2022-07-17T13:16:46;98225.06;;;31.68;16.95
3796;BME280;1913;50.660;7.834;2022-07-17T13:19:11;98235.09;;;31.99;17.89
3796;BME280;1913;50.660;7.834;2022-07-17T13:21:37;98224.53;;;31.48;17.78
3796;BME280;1913;50.660;7.834;2022-07-17T13:24:02;98228.91;;;31.67;18.07
3796;BME280;1913;50.660;7.834;2022-07-17T13:26:28;98225.31;;;31.89;18.64
3796;BME280;1913;50.660;7.834;2022-07-17T13:28:54;98229.69;;;32.51;18.67
3796;BME280;1913;50.660;7.834;2022-07-17T13:31:19;98217.53;;;32.13;17.52
3796;BME280;1913;50.660;7.834;2022-07-17T13:33:44;98216.09;;;32.77;18.29
3796;BME280;1913;50.660;7.834;2022-07-17T13:36:10;98211.50;;;33.24;16.71
3796;BME280;1913;50.660;7.834;2022-07-17T13:38:35;98214.28;;;32.89;15.98
3796;BME280;1913;50.660;7.834;2022-07-17T13:41:00;98216.53;;;32.79;16.17
3796;BME280;1913;50.660;7.834;2022-07-17T13:43:26;98217.06;;;32.63;16.45
3796;BME280;1913;50.660;7.834;2022-07-17T13:45:52;98208.75;;;32.42;16.68
3796;BME280;1913;50.660;7.834;2022-07-17T13:48:17;98224.25;;;32.51;16.58
3796;BME280;1913;50.660;7.834;2022-07-17T13:50:43;98201.19;;;32.22;18.16
3796;BME280;1913;50.660;7.834;2022-07-17T13:53:08;98210.97;;;32.66;18.08
3796;BME280;1913;50.660;7.834;2022-07-17T13:55:36;98212.69;;;33.06;18.03
3796;BME280;1913;50.660;7.834;2022-07-17T13:58:01;98216.34;;;33.57;17.07
3796;BME280;1913;50.660;7.834;2022-07-17T14:00:28;98213.88;;;33.73;16.80
3796;BME280;1913;50.660;7.834;2022-07-17T14:02:54;98207.56;;;32.87;16.87
3796;BME280;1913;50.660;7.834;2022-07-17T14:05:20;98200.72;;;32.72;17.40
3796;BME280;1913;50.660;7.834;2022-07-17T14:07:45;98208.41;;;32.70;17.02
3796;BME280;1913;50.660;7.834;2022-07-17T14:10:10;98198.50;;;32.13;17.02
3796;BME280;1913;50.660;7.834;2022-07-17T14:12:36;98196.31;;;31.76;18.43
3796;BME280;1913;50.660;7.834;2022-07-17T14:15:02;98195.91;;;32.26;18.29
3796;BME280;1913;50.660;7.834;2022-07-17T14:17:28;98193.03;;;31.96;18.35
3796;BME280;1913;50.660;7.834;2022-07-17T14:19:54;98189.16;;;31.31;18.63
3796;BME280;1913;50.660;7.834;2022-07-17T14:22:19;98190.84;;;31.58;19.41
3796;BME280;1913;50.660;7.834;2022-07-17T14:24:44;98187.88;;;31.86;18.96
3796;BME280;1913;50.660;7.834;2022-07-17T14:27:10;98188.72;;;32.04;18.41
3796;BME280;1913;50.660;7.834;2022-07-17T14:29:35;98189.88;;;32.46;18.80
3796;BME280;1913;50.660;7.834;2022-07-17T14:32:00;98182.59;;;31.81;18.16
3796;BME280;1913;50.660;7.834;2022-07-17T14:34:26;98181.03;;;31.40;18.52
3796;BME280;1913;50.660;7.834;2022-07-17T14:36:51;98179.19;;;30.87;19.19
3796;BME280;1913;50.660;7.834;2022-07-17T14:39:16;98180.75;;;31.10;19.65
3796;BME280;1913;50.660;7.834;2022-07-17T14:41:42;98180.75;;;31.10;19.65
3796;BME280;1913;50.660;7.834;2022-07-17T14:44:10;98178.91;;;31.85;19.18
3796;BME280;1913;50.660;7.834;2022-07-17T14:46:35;98179.97;;;31.58;18.62
3796;BME280;1913;50.660;7.834;2022-07-17T14:49:01;98183.19;;;31.20;19.31
3796;BME280;1913;50.660;7.834;2022-07-17T14:51:26;98179.34;;;31.53;19.16
3796;BME280;1913;50.660;7.834;2022-07-17T14:53:52;98178.31;;;31.31;19.45
3796;BME280;1913;50.660;7.834;2022-07-17T14:56:17;98172.03;;;31.70;19.70
3796;BME280;1913;50.660;7.834;2022-07-17T14:58:42;98172.53;;;31.01;19.62
3796;BME280;1913;50.660;7.834;2022-07-17T15:01:08;98173.53;;;31.06;19.54
3796;BME280;1913;50.660;7.834;2022-07-17T15:03:33;98175.88;;;31.30;20.00